• Join FlightAware (Why Join?)
  • Login
  • US Flag 
10:21PM EDT


 

Airport Tracker/Info


-or-


 

Live Flight TrackerFlight Track Log ✈ AWE1262 ✈ 25-Apr-2013 ✈ KPHL - KMHT

Flight Track Log - Related Links

Times and Time Zones

All times are in EDT time to prevent confusion due to time zone crossing. See the AWE1262 flight status page for this flight to view local times or setup timezone preferences in your user account.

Time Position Orientation Groundspeed Altitude Reporting Facility
EDT Latitude Longitude Course Direction KTS MPH feet Rate Location/Type
09:29PM 39.8667 -75.2833 37° Northeast 159 183 900  Level Philadelphia TRACON
09:29PM 39.8333 -75.3000 201° Southwest 169 194 2,000 2,160 Climbing Philadelphia TRACON
09:30PM 39.7833 -75.3500 218° Southwest 213 245 4,400 2,700 Climbing Philadelphia TRACON
09:31PM 39.7979 -74.7727 105° East  Level FlightAware Approximate
09:31PM 39.7333 -75.3167 153° Southeast 272 313 7,400  Level Philadelphia TRACON
09:32PM 39.8349 -74.6485 37° Northeast  Level FlightAware Approximate
09:32PM 39.7333 -75.2167 90° East 305 351 10,300  Level Philadelphia TRACON
09:33PM 39.9357 -74.5643 37° Northeast  Level FlightAware Approximate
09:34PM 40.0331 -74.4669 37° Northeast  Level FlightAware Approximate
09:35PM 39.7672 -74.9300 81° East 356 410 12,000  Level New York Center
09:36PM 39.7847 -74.7850 81° East 365 420 12,500 1,860 Climbing New York Center
09:37PM 39.8322 -74.6769 60° Northeast 365 420 15,700 2,700 Climbing New York Center
09:38PM 39.9139 -74.5978 37° Northeast 343 395 17,900 2,100 Climbing New York Center
09:39PM 40.0000 -74.5131 37° Northeast 356 410 20,000 1,980 Climbing New York Center
09:40PM 40.0883 -74.4256 37° Northeast 376 433 21,900 1,860 Climbing New York Center
09:41PM 40.1828 -74.3328 37° Northeast 415 478 23,800 1,680 Climbing New York Center
09:42PM 40.2817 -74.2344 37° Northeast 426 490 25,300 1,320 Climbing New York Center
09:43PM 40.3825 -74.1333 37° Northeast 440 506 26,500 1,020 Climbing New York Center
09:44PM 40.5517 -73.9886 33° Northeast 474 545 28,000 1,260 Climbing Boston Center
09:45PM 40.6814 -73.9481 13° North 478 550 29,800 1,380 Climbing Boston Center
09:46PM 40.8111 -73.9072 13° North 472 543 30,800 900 Climbing Boston Center
09:47PM 40.9472 -73.8664 13° North 479 551 31,700 1,020 Climbing Boston Center
09:48PM 41.0789 -73.8225 14° North 479 551 32,900 600 Climbing Boston Center
09:49PM 41.2167 -73.8033 North 492 566 33,000  Climbing Boston Center
09:50PM 41.3564 -73.8089 358° North 497 572 33,000  Level Boston Center
09:51PM 41.4939 -73.8147 358° North 497 572 33,000  Level Boston Center
09:52PM 41.6311 -73.8233 357° North 497 572 33,000  Level Boston Center
09:53PM 41.7708 -73.8236 360° North 497 572 33,000  Level Boston Center
09:54PM 41.9189 -73.8211 North 487 560 33,000 -600 Level Boston Center
09:55PM 42.0567 -73.7989 North 492 566 31,900 -1,560 Descending Boston Center
09:56PM 42.1989 -73.7517 14° North 505 581 29,900 -2,040 Descending Boston Center
09:57PM 42.3147 -73.6503 33° Northeast 536 617 27,900 -2,040 Descending Boston Center
09:58PM 42.3789 -73.5025 60° Northeast 460 529 25,900 -2,040 Descending Boston Center
09:59PM 42.4344 -73.3403 65° Northeast 453 521 23,900 -2,040 Descending Boston Center
10:01PM 42.4336 -73.1849 90° East  Level FlightAware Approximate
10:01PM 42.5364 -73.0375 90° East 439 505 19,900  Level Boston Center
10:02PM 42.5850 -72.8997 64° Northeast 414 476 19,000 -900 Descending Boston Center
10:03PM 42.6292 -72.7758 64° Northeast 409 471 18,100 -1,260 Descending Boston Center
10:04PM 42.6775 -72.6378 64° Northeast 404 465 16,500 -1,500 Descending Boston Center
10:05PM 42.7233 -72.5050 65° Northeast 397 457 15,100 -1,440 Descending Boston Center
10:06PM 42.7672 -72.3750 65° Northeast 381 438 13,700 -1,500 Descending Boston Center
10:07PM 42.7983 -72.2364 73° East 364 419 12,200 -1,500 Descending Boston Center
10:08PM 42.8042 -72.1119 86° East 338 389 10,800 -1,320 Descending Boston Center
10:09PM 42.7997 -71.9986 93° East 311 358 9,600 -1,440 Descending Boston Center
10:10PM 42.7950 -71.8911 93° East 289 333 8,000 -1,620 Descending Boston Center
10:11PM 42.7903 -71.7867 93° East 279 321 6,400 -1,500 Descending Boston Center
10:12PM 42.7856 -71.6819 93° East 274 315 5,000 -1,260 Descending Boston Center
10:13PM 42.7828 -71.5831 92° East 269 310 3,900 -1,200 Descending Boston Center
10:14PM 42.7986 -71.4894 77° East 255 293 2,600 -720 Descending Boston Center
10:15PM 42.8064 -71.4186 81° East 228 262 2,500 -300 Descending Boston Center
10:16PM 42.8414 -71.3783 40° Northeast 155 178 2,000 -600 Descending Boston Center
10:17PM 42.8708 -71.4003 331° Northwest 116 133 1,300 -720 Descending Boston Center
10:18PM 42.9064 -71.4197 338° Northwest 121 139 600 -480 Descending Boston Center
10:19PM 42.9378 -71.4389 336° Northwest 121 139 400 9,180 Descending Boston Center
10:20PM 42.9694 -71.4611 333° Northwest 121 139 19,000 9,300 Climbing Boston Center
10:21PM 43.0008 -71.4806 336° Northwest 121 139 19,000  Level Boston Center
10:23PM 42.9328 -71.4358 164° South  Level Estimated